Time;durP1;ratioP1;P1;durP2;ratioP2;P2;SDS_P1;SDS_P2;PMS_P1;PMS_P2;Temp;Humidity;BMP_temperature;BMP_pressure;BME280_temperature;BME280_humidity;BME280_pressure;Samples;Min_cycle;Max_cycle;Signal;HPM_P1;HPM_P2
2022/03/09 00:00:32;;;;;;;1.50;1.50;;;0.30;98.00;;;;;;6245073;23;20413;-69
2022/03/09 00:03:01;;;;;;;2.50;2.20;;;0.30;98.00;;;;;;6245019;23;20479;-67
2022/03/09 00:05:28;;;;;;;1.10;1.00;;;0.60;97.60;;;;;;6244345;23;20406;-69
2022/03/09 00:07:55;;;;;;;1.60;1.47;;;0.60;97.30;;;;;;6244509;23;20401;-67
2022/03/09 00:10:22;;;;;;;1.40;1.20;;;0.50;97.70;;;;;;6244647;23;20413;-69
2022/03/09 00:12:49;;;;;;;1.83;1.30;;;0.30;98.00;;;;;;6244806;23;20405;-68
2022/03/09 00:15:16;;;;;;;1.63;1.60;;;0.00;98.00;;;;;;6243977;23;20470;-68
2022/03/09 00:17:43;;;;;;;1.70;1.60;;;0.20;98.00;;;;;;6244745;23;20436;-69
2022/03/09 00:20:12;;;;;;;1.80;1.60;;;0.00;98.00;;;;;;6244609;23;20428;-68
2022/03/09 00:22:42;;;;;;;1.40;1.37;;;-0.10;98.00;;;;;;6244674;23;20452;-68
2022/03/09 00:25:09;;;;;;;1.43;1.37;;;0.00;98.00;;;;;;6244720;23;20405;-68
2022/03/09 00:27:36;;;;;;;2.07;1.83;;;0.00;98.00;;;;;;6244750;23;20426;-68
2022/03/09 00:30:04;;;;;;;1.73;1.60;;;-0.10;98.00;;;;;;6244110;23;20410;-67
2022/03/09 00:32:32;;;;;;;2.03;1.70;;;-0.20;98.00;;;;;;6244391;23;20739;-68
2022/03/09 00:34:59;;;;;;;1.97;1.60;;;-0.30;98.00;;;;;;6244080;23;20432;-68
2022/03/09 00:37:27;;;;;;;1.50;1.40;;;-0.20;98.00;;;;;;6244002;23;20464;-69
2022/03/09 00:39:54;;;;;;;1.93;1.87;;;-0.30;98.00;;;;;;6244340;23;20409;-68
2022/03/09 00:42:21;;;;;;;2.13;1.97;;;-0.20;98.00;;;;;;6217912;23;20453;-67
2022/03/09 00:44:48;;;;;;;1.30;1.27;;;0.00;98.00;;;;;;6244620;23;20411;-68
2022/03/09 00:47:15;;;;;;;3.90;3.70;;;-0.10;98.00;;;;;;6244433;23;20407;-68
2022/03/09 00:49:43;;;;;;;2.73;2.00;;;-0.20;98.00;;;;;;6244548;23;20458;-68
2022/03/09 00:52:10;;;;;;;4.20;3.23;;;-0.40;98.00;;;;;;6244614;23;20802;-67
2022/03/09 00:54:38;;;;;;;3.40;2.60;;;-0.40;98.00;;;;;;6244535;23;20400;-68
2022/03/09 00:57:05;;;;;;;3.73;2.80;;;-0.40;98.00;;;;;;6244121;23;20458;-68
2022/03/09 00:59:33;;;;;;;2.67;2.47;;;-0.40;98.00;;;;;;6244306;23;20439;-68
2022/03/09 01:02:00;;;;;;;1.77;1.67;;;-0.40;98.00;;;;;;6244211;23;20400;-68
2022/03/09 01:04:27;;;;;;;2.03;1.93;;;-0.30;98.00;;;;;;6244109;23;20419;-68
2022/03/09 01:06:56;;;;;;;4.90;2.50;;;-0.30;98.00;;;;;;6217015;23;20441;-69
2022/03/09 01:09:23;;;;;;;1.70;1.40;;;-0.20;98.00;;;;;;6244009;23;20404;-69
2022/03/09 01:11:52;;;;;;;1.40;1.40;;;0.00;98.00;;;;;;6244028;23;20450;-68
2022/03/09 01:14:19;;;;;;;1.50;1.37;;;-0.10;98.00;;;;;;6244061;23;20424;-67
2022/03/09 01:16:46;;;;;;;2.63;2.43;;;-0.30;98.00;;;;;;6243919;23;20475;-67
2022/03/09 01:19:13;;;;;;;2.57;1.93;;;-0.40;98.00;;;;;;6216902;23;20429;-68
2022/03/09 01:21:40;;;;;;;2.23;2.03;;;-0.30;98.00;;;;;;6243769;23;20471;-68
2022/03/09 01:24:08;;;;;;;1.70;1.57;;;-0.10;98.00;;;;;;6244451;23;20432;-68
2022/03/09 01:26:36;;;;;;;1.63;1.60;;;-0.10;98.00;;;;;;6243705;23;20425;-68
2022/03/09 01:29:06;;;;;;;2.57;2.03;;;-0.20;98.00;;;;;;6243941;23;20400;-68
2022/03/09 01:31:33;;;;;;;2.33;2.13;;;-0.20;98.00;;;;;;6243412;23;20430;-69
2022/03/09 01:34:00;;;;;;;1.30;1.20;;;-0.40;98.00;;;;;;6243969;23;20400;-67
2022/03/09 01:36:27;;;;;;;1.93;1.33;;;-0.40;98.00;;;;;;6243478;23;20450;-69
2022/03/09 01:38:54;;;;;;;2.37;2.07;;;-0.40;98.00;;;;;;6243942;23;20827;-67
2022/03/09 01:41:21;;;;;;;1.77;1.67;;;-0.40;98.00;;;;;;6217301;23;20423;-69
2022/03/09 01:44:10;;;;;;;2.60;2.30;;;-0.50;98.00;;;;;;6244303;23;20437;-67
2022/03/09 01:46:37;;;;;;;1.93;1.40;;;-0.50;98.00;;;;;;6244002;23;20451;-67
2022/03/09 01:49:12;;;;;;;1.77;1.63;;;-0.30;98.00;;;;;;6243779;23;20400;-68
2022/03/09 01:51:41;;;;;;;1.53;1.50;;;-0.20;98.00;;;;;;6243782;23;20404;-67
2022/03/09 01:54:09;;;;;;;1.90;1.80;;;-0.40;98.00;;;;;;6243853;23;20401;-68
2022/03/09 01:56:36;;;;;;;1.97;1.60;;;-0.60;98.00;;;;;;6243810;23;20681;-68
2022/03/09 01:59:04;;;;;;;1.43;1.23;;;-0.50;98.00;;;;;;6243746;23;20655;-68
2022/03/09 02:01:32;;;;;;;2.90;1.93;;;-0.60;98.00;;;;;;6243252;23;20459;-67
2022/03/09 02:04:01;;;;;;;1.40;1.30;;;-0.70;98.00;;;;;;6243713;23;20420;-67
2022/03/09 02:06:29;;;;;;;3.00;1.97;;;-0.70;98.00;;;;;;6217052;23;20437;-69
2022/03/09 02:11:41;;;;;;;2.23;2.03;;;-0.80;98.00;;;;;;6243549;23;20392;-68
2022/03/09 02:14:26;;;;;;;1.70;1.50;;;-0.90;98.00;;;;;;6243703;23;20395;-69
2022/03/09 02:16:55;;;;;;;1.87;1.77;;;-1.20;98.00;;;;;;6243611;23;20402;-67
2022/03/09 02:19:22;;;;;;;5.37;2.23;;;-1.30;98.00;;;;;;6243558;23;20477;-68
2022/03/09 02:21:53;;;;;;;3.97;2.50;;;-1.30;98.00;;;;;;6243746;23;20806;-67
2022/03/09 02:24:22;;;;;;;2.10;1.97;;;-1.40;98.00;;;;;;6244036;23;20462;-67
2022/03/09 02:26:50;;;;;;;1.40;1.30;;;-1.30;98.00;;;;;;6243679;23;20410;-67
2022/03/09 02:29:18;;;;;;;1.93;1.73;;;-1.20;98.00;;;;;;6243629;23;20459;-68
2022/03/09 02:31:45;;;;;;;1.60;1.60;;;-1.00;98.00;;;;;;6243372;23;20448;-67
2022/03/09 02:34:12;;;;;;;2.33;1.90;;;-0.90;98.00;;;;;;6243590;23;20900;-67
2022/03/09 02:36:38;;;;;;;1.53;1.33;;;-1.10;98.00;;;;;;6244013;23;20396;-68
2022/03/09 02:39:05;;;;;;;1.27;1.23;;;-1.20;98.00;;;;;;6244023;23;20464;-68
2022/03/09 02:41:34;;;;;;;2.43;1.93;;;-1.10;98.00;;;;;;6243292;23;20426;-68
2022/03/09 02:44:02;;;;;;;1.77;1.77;;;-1.10;98.00;;;;;;6243626;23;20400;-68
2022/03/09 02:46:29;;;;;;;1.30;1.30;;;-1.00;98.00;;;;;;6242756;23;20490;-68
2022/03/09 02:48:56;;;;;;;2.93;2.43;;;-1.20;98.00;;;;;;6243302;23;20400;-67
2022/03/09 02:51:23;;;;;;;1.87;1.13;;;-1.30;98.00;;;;;;6243525;23;20415;-68
2022/03/09 02:53:51;;;;;;;1.40;1.30;;;-1.10;98.00;;;;;;6243203;23;20503;-67
2022/03/09 02:56:18;;;;;;;2.40;2.20;;;-1.10;98.00;;;;;;6243175;23;20399;-67
2022/03/09 02:58:46;;;;;;;1.20;1.20;;;-1.10;98.00;;;;;;6243507;23;20824;-68
2022/03/09 03:01:14;;;;;;;1.93;1.77;;;-1.10;98.00;;;;;;6218253;23;20395;-69
2022/03/09 03:03:42;;;;;;;1.60;1.30;;;-1.40;98.00;;;;;;6245384;23;20393;-67
2022/03/09 03:06:09;;;;;;;1.83;1.50;;;-1.40;98.00;;;;;;6245346;23;20405;-67
2022/03/09 03:08:38;;;;;;;1.50;1.40;;;-1.40;98.00;;;;;;6218759;23;20789;-68
2022/03/09 03:11:05;;;;;;;2.27;1.70;;;-1.30;98.00;;;;;;6218807;23;20455;-67
2022/03/09 03:13:32;;;;;;;1.20;1.10;;;-1.10;98.00;;;;;;6245235;23;20419;-68
2022/03/09 03:16:00;;;;;;;1.67;1.57;;;-1.10;98.00;;;;;;6218790;23;20448;-67
2022/03/09 03:18:27;;;;;;;1.20;1.20;;;-1.10;98.00;;;;;;6244891;23;20482;-67
2022/03/09 03:20:55;;;;;;;1.60;1.47;;;-1.20;98.00;;;;;;6245354;23;20486;-67
2022/03/09 03:23:23;;;;;;;1.20;1.07;;;-1.30;98.00;;;;;;6245292;23;20417;-68
2022/03/09 03:25:50;;;;;;;1.30;1.20;;;-1.60;98.00;;;;;;6246481;23;20403;-67
2022/03/09 03:28:17;;;;;;;2.13;2.03;;;-1.80;98.00;;;;;;6246099;23;20169;-67
2022/03/09 03:30:44;;;;;;;1.20;1.20;;;-1.70;98.00;;;;;;6245791;23;20429;-67
2022/03/09 03:33:13;;;;;;;2.53;2.43;;;-1.80;98.00;;;;;;6245254;23;20958;-67
2022/03/09 03:35:41;;;;;;;1.70;1.60;;;-1.90;98.00;;;;;;6245107;23;20415;-67
2022/03/09 03:38:08;;;;;;;1.20;1.10;;;-1.80;98.00;;;;;;6244896;23;20426;-69
2022/03/09 03:40:35;;;;;;;1.60;1.60;;;-1.60;98.00;;;;;;6245135;23;20746;-67
2022/03/09 03:43:02;;;;;;;1.93;1.83;;;-1.40;98.00;;;;;;6244713;23;20869;-67
2022/03/09 03:45:29;;;;;;;1.47;1.43;;;-1.70;98.00;;;;;;6244454;23;20950;-67
2022/03/09 03:47:56;;;;;;;1.20;1.10;;;-1.70;98.00;;;;;;6244783;23;20438;-67
2022/03/09 03:50:25;;;;;;;1.70;1.60;;;-1.70;98.00;;;;;;6244586;23;20616;-67
2022/03/09 03:52:52;;;;;;;1.70;1.67;;;-1.50;98.00;;;;;;6244999;23;20399;-67
2022/03/09 03:55:19;;;;;;;1.70;1.67;;;-1.30;98.00;;;;;;6244468;23;20425;-68
2022/03/09 03:57:47;;;;;;;1.47;1.40;;;-1.40;98.00;;;;;;6244810;23;20458;-68
2022/03/09 04:00:15;;;;;;;1.20;1.20;;;-1.50;98.00;;;;;;6218348;23;20415;-69
2022/03/09 04:02:41;;;;;;;1.83;1.73;;;-1.50;98.00;;;;;;6244602;23;20432;-68
2022/03/09 04:05:10;;;;;;;1.80;1.70;;;-1.60;98.00;;;;;;6244757;23;20442;-67
2022/03/09 04:07:38;;;;;;;1.30;1.27;;;-1.60;98.00;;;;;;6244472;23;20451;-67
2022/03/09 04:10:06;;;;;;;1.20;1.20;;;-1.40;98.00;;;;;;6244888;23;20453;-69
2022/03/09 04:12:34;;;;;;;1.47;1.40;;;-1.50;98.00;;;;;;6192326;23;20423;-68
2022/03/09 04:15:01;;;;;;;2.73;2.23;;;-1.70;98.00;;;;;;6244641;23;20411;-67
2022/03/09 04:17:28;;;;;;;1.20;1.10;;;-1.70;98.00;;;;;;6244301;23;20434;-68
2022/03/09 04:19:55;;;;;;;1.65;1.55;;;-1.60;98.00;;;;;;6218568;23;20454;-68
2022/03/09 04:22:22;;;;;;;1.20;1.17;;;-1.70;98.00;;;;;;6244145;23;20163;-69
2022/03/09 04:24:51;;;;;;;1.83;1.70;;;-1.70;98.00;;;;;;6244435;23;20460;-67
2022/03/09 04:27:18;;;;;;;1.30;1.30;;;-1.50;98.00;;;;;;6244449;23;20407;-68
2022/03/09 04:29:45;;;;;;;1.20;1.20;;;-1.30;98.00;;;;;;6244630;23;20189;-67
2022/03/09 04:32:12;;;;;;;1.17;1.00;;;-1.20;98.00;;;;;;6217780;23;20464;-67
2022/03/09 04:34:39;;;;;;;1.30;1.30;;;-1.60;98.00;;;;;;6244685;23;20439;-67
2022/03/09 04:37:06;;;;;;;1.20;1.20;;;-1.80;98.00;;;;;;6244332;23;20410;-69
2022/03/09 04:39:33;;;;;;;2.70;2.00;;;-2.00;98.00;;;;;;6218115;23;20426;-67
2022/03/09 04:42:01;;;;;;;2.07;1.77;;;-2.10;98.00;;;;;;6244352;23;20463;-68
2022/03/09 04:44:29;;;;;;;1.93;1.50;;;-2.20;98.00;;;;;;6243941;23;20406;-67
2022/03/09 04:46:56;;;;;;;1.10;1.00;;;-2.20;98.00;;;;;;6217901;23;20939;-67
2022/03/09 04:49:23;;;;;;;1.57;1.47;;;-2.20;98.00;;;;;;6244358;23;20423;-67
2022/03/09 04:51:50;;;;;;;3.23;1.73;;;-2.10;98.00;;;;;;6244295;23;20402;-68
2022/03/09 04:54:17;;;;;;;1.50;1.37;;;-1.90;98.00;;;;;;6244057;23;20429;-67
2022/03/09 04:56:44;;;;;;;1.40;1.33;;;-1.80;98.00;;;;;;6244206;23;20469;-67
2022/03/09 04:59:12;;;;;;;1.20;1.10;;;-1.70;98.00;;;;;;6244112;23;20476;-68
2022/03/09 05:01:40;;;;;;;2.15;1.90;;;-2.00;98.00;;;;;;6243948;23;20860;-69
2022/03/09 05:04:07;;;;;;;1.20;1.00;;;-2.20;98.00;;;;;;6244344;23;20512;-67
2022/03/09 05:06:34;;;;;;;2.40;1.77;;;-2.40;98.00;;;;;;6244181;23;20164;-68
2022/03/09 05:09:01;;;;;;;1.50;1.45;;;-2.30;98.00;;;;;;6244533;23;20402;-67
2022/03/09 05:11:27;;;;;;;1.50;1.40;;;-2.10;98.00;;;;;;6243687;23;20195;-67
2022/03/09 05:13:57;;;;;;;1.15;1.00;;;-1.80;98.00;;;;;;6244311;23;20190;-67
2022/03/09 05:16:26;;;;;;;1.40;1.30;;;-1.90;98.00;;;;;;6244040;23;20188;-67
2022/03/09 05:18:52;;;;;;;1.20;1.20;;;-2.00;98.00;;;;;;6243825;23;20721;-67
2022/03/09 05:21:19;;;;;;;1.58;1.52;;;-2.10;98.00;;;;;;6244013;23;20410;-68
2022/03/09 05:23:46;;;;;;;1.60;1.50;;;-2.20;98.00;;;;;;6217355;23;20172;-66
2022/03/09 05:26:14;;;;;;;1.20;1.20;;;-2.30;98.00;;;;;;6244100;23;20394;-67
2022/03/09 05:28:41;;;;;;;2.17;1.38;;;-2.20;98.00;;;;;;6244098;23;20156;-67
2022/03/09 05:31:07;;;;;;;1.20;1.10;;;-2.10;98.00;;;;;;6243804;23;20194;-67
2022/03/09 05:33:36;;;;;;;2.00;1.88;;;-2.20;98.00;;;;;;6243534;23;20177;-67
2022/03/09 05:36:03;;;;;;;2.05;1.30;;;-2.40;98.00;;;;;;6243568;23;20164;-67
2022/03/09 05:38:30;;;;;;;1.50;1.47;;;-2.40;98.00;;;;;;6216981;23;20184;-67
2022/03/09 05:40:57;;;;;;;1.70;1.67;;;-2.30;98.00;;;;;;6243780;23;20415;-68
2022/03/09 05:43:24;;;;;;;2.05;1.20;;;-2.30;98.00;;;;;;6243596;23;20887;-67
2022/03/09 05:45:51;;;;;;;1.50;1.40;;;-2.20;98.00;;;;;;6217194;23;20202;-66
2022/03/09 05:48:18;;;;;;;2.38;2.15;;;-2.10;98.00;;;;;;6217414;23;20806;-67
2022/03/09 05:50:47;;;;;;;1.27;1.23;;;-2.20;98.00;;;;;;6217143;23;20177;-67
2022/03/09 05:53:14;;;;;;;1.30;1.20;;;-2.40;98.00;;;;;;6243607;23;20652;-68
2022/03/09 05:55:41;;;;;;;2.17;1.30;;;-2.40;98.00;;;;;;6243888;23;20159;-67
2022/03/09 05:58:08;;;;;;;1.87;1.40;;;-2.40;98.00;;;;;;6244050;23;20163;-67
2022/03/09 06:00:35;;;;;;;1.40;1.40;;;-2.50;98.00;;;;;;6243913;23;20451;-67
2022/03/09 06:03:04;;;;;;;3.00;2.80;;;-2.40;98.00;;;;;;6217387;23;20403;-67
2022/03/09 06:05:30;;;;;;;2.30;1.50;;;-2.60;98.00;;;;;;6243461;23;20206;-67
2022/03/09 06:07:59;;;;;;;1.47;1.43;;;-2.50;98.00;;;;;;6243888;23;20418;-68
2022/03/09 06:10:26;;;;;;;1.80;1.70;;;-2.40;98.00;;;;;;6243281;23;20422;-67
2022/03/09 06:12:53;;;;;;;3.05;1.80;;;-2.40;98.00;;;;;;6243480;23;20410;-67
2022/03/09 06:15:20;;;;;;;1.50;1.37;;;-2.40;98.00;;;;;;6243631;23;20173;-67
2022/03/09 06:17:48;;;;;;;1.20;1.10;;;-2.50;98.00;;;;;;6243857;23;20398;-67
2022/03/09 06:20:17;;;;;;;1.65;1.58;;;-2.40;98.00;;;;;;6243676;23;20186;-67
2022/03/09 06:22:45;;;;;;;1.30;1.30;;;-2.50;98.00;;;;;;6243120;23;20184;-67
2022/03/09 06:25:15;;;;;;;1.20;1.20;;;-2.50;98.00;;;;;;6243338;23;20168;-67
2022/03/09 06:27:42;;;;;;;2.50;2.17;;;-2.60;98.00;;;;;;6243666;23;20725;-66
2022/03/09 06:30:13;;;;;;;1.50;1.40;;;-2.50;98.00;;;;;;6243313;23;20191;-67
2022/03/09 06:32:41;;;;;;;1.55;1.55;;;-2.60;98.00;;;;;;6243695;23;20229;-67
2022/03/09 06:35:12;;;;;;;2.10;1.60;;;-2.70;98.00;;;;;;6244024;23;20617;-67
2022/03/09 06:37:40;;;;;;;1.65;1.38;;;-2.60;98.00;;;;;;6245466;23;20253;-67
2022/03/09 06:40:08;;;;;;;1.45;1.38;;;-2.40;98.00;;;;;;6245603;23;20575;-67
2022/03/09 06:42:37;;;;;;;3.80;1.45;;;-2.30;98.00;;;;;;6245185;23;20219;-67
2022/03/09 06:45:04;;;;;;;1.60;1.50;;;-2.40;98.00;;;;;;6245529;23;20171;-68
2022/03/09 06:47:32;;;;;;;1.50;1.40;;;-2.40;98.00;;;;;;6245748;23;20457;-67
2022/03/09 06:49:59;;;;;;;1.65;1.65;;;-2.40;98.00;;;;;;6245679;23;20155;-67
2022/03/09 06:52:26;;;;;;;2.35;2.15;;;-2.30;98.00;;;;;;6245756;23;20548;-66
2022/03/09 06:54:53;;;;;;;1.20;1.20;;;-2.20;98.00;;;;;;6245591;23;20160;-66
2022/03/09 06:57:21;;;;;;;2.30;1.57;;;-2.20;98.00;;;;;;6245359;23;20431;-67
2022/03/09 06:59:49;;;;;;;1.40;1.23;;;-2.10;98.00;;;;;;6218562;23;20937;-67
2022/03/09 07:02:16;;;;;;;3.63;1.85;;;-2.10;98.00;;;;;;6244999;23;20236;-68
2022/03/09 07:04:43;;;;;;;1.88;1.80;;;-2.00;98.00;;;;;;6245348;23;20233;-67
2022/03/09 07:07:10;;;;;;;1.20;1.10;;;-2.00;98.00;;;;;;6245368;23;20497;-67
2022/03/09 07:09:37;;;;;;;2.20;1.93;;;-2.00;98.00;;;;;;6244983;23;20607;-67
2022/03/09 07:12:04;;;;;;;1.30;1.30;;;-1.80;98.00;;;;;;6244869;23;20392;-68
2022/03/09 07:14:31;;;;;;;1.67;1.40;;;-1.70;98.00;;;;;;6244923;23;21066;-68
2022/03/09 07:17:00;;;;;;;4.10;2.43;;;-1.40;98.00;;;;;;6245707;23;20624;-68
2022/03/09 07:19:27;;;;;;;1.50;1.40;;;-1.20;98.00;;;;;;6245003;23;20427;-69
2022/03/09 07:21:54;;;;;;;2.25;1.77;;;-1.30;98.00;;;;;;6244972;23;20191;-69
2022/03/09 07:24:21;;;;;;;1.77;1.47;;;-1.40;98.00;;;;;;6245012;23;20166;-69
2022/03/09 07:26:48;;;;;;;3.00;2.33;;;-1.30;98.00;;;;;;6245170;23;20428;-69
2022/03/09 07:29:17;;;;;;;2.07;1.60;;;-1.30;98.00;;;;;;6245173;23;20396;-67
2022/03/09 07:31:44;;;;;;;1.20;1.17;;;-1.10;98.00;;;;;;6244521;23;20491;-68
2022/03/09 07:36:57;;;;;;;2.67;2.37;;;-0.70;98.00;;;;;;6244632;23;21068;-68
2022/03/09 07:39:28;;;;;;;1.50;1.33;;;-0.50;98.00;;;;;;6244857;23;20936;-67
2022/03/09 07:41:55;;;;;;;1.70;1.60;;;-0.40;98.00;;;;;;6244810;23;20428;-67
2022/03/09 07:44:23;;;;;;;1.70;1.43;;;-0.30;98.00;;;;;;6245360;23;20433;-68
2022/03/09 07:46:50;;;;;;;1.40;1.30;;;-0.30;98.00;;;;;;6245054;23;20403;-68
2022/03/09 07:49:19;;;;;;;2.30;2.13;;;-0.30;98.00;;;;;;6244548;23;20842;-67
2022/03/09 07:51:47;;;;;;;6.63;2.40;;;-0.30;98.00;;;;;;6244742;23;20403;-68
2022/03/09 07:54:14;;;;;;;1.50;1.40;;;-0.30;98.00;;;;;;6244938;23;20396;-69
2022/03/09 07:56:41;;;;;;;1.20;1.10;;;-0.20;98.00;;;;;;6244734;23;20610;-68
2022/03/09 07:59:11;;;;;;;1.20;1.13;;;-0.20;98.00;;;;;;6244562;23;22288;-68
2022/03/09 08:01:39;;;;;;;2.40;1.50;;;0.00;98.00;;;;;;6244482;23;20393;-67
2022/03/09 08:04:07;;;;;;;11.73;3.80;;;0.30;98.00;;;;;;6217765;23;20498;-68
2022/03/09 08:06:38;;;;;;;2.13;1.20;;;0.40;98.00;;;;;;6244912;23;20404;-68
2022/03/09 08:09:05;;;;;;;1.77;1.53;;;0.50;98.00;;;;;;6244796;23;20405;-69
2022/03/09 08:11:32;;;;;;;3.93;2.70;;;0.60;98.00;;;;;;6244838;23;20413;-68
2022/03/09 08:13:59;;;;;;;1.27;1.23;;;0.70;98.00;;;;;;6244950;23;20704;-68
2022/03/09 08:16:26;;;;;;;5.63;2.80;;;0.90;98.00;;;;;;6244599;23;20726;-66
2022/03/09 08:18:53;;;;;;;1.20;1.10;;;1.10;98.00;;;;;;6245444;23;20416;-67
2022/03/09 08:21:20;;;;;;;1.73;1.63;;;1.30;98.00;;;;;;6218340;23;20405;-67
2022/03/09 08:23:48;;;;;;;2.03;1.63;;;1.60;98.00;;;;;;6245377;23;20436;-68
2022/03/09 08:26:15;;;;;;;2.60;2.07;;;1.80;98.00;;;;;;6244944;23;20414;-66
2022/03/09 08:28:43;;;;;;;1.40;1.10;;;1.90;98.00;;;;;;6244634;23;20421;-68
2022/03/09 08:31:10;;;;;;;1.30;1.30;;;2.10;98.00;;;;;;6244387;23;20425;-68
2022/03/09 08:33:38;;;;;;;12.07;2.43;;;2.20;98.00;;;;;;6243241;23;20432;-70
2022/03/09 08:36:05;;;;;;;1.67;1.50;;;2.20;98.00;;;;;;6243441;23;20467;-68
2022/03/09 08:38:33;;;;;;;1.87;1.40;;;2.30;98.00;;;;;;6243849;23;20795;-69
2022/03/09 08:41:02;;;;;;;1.30;1.10;;;2.50;98.00;;;;;;6242936;23;20457;-68
2022/03/09 08:43:29;;;;;;;3.27;2.07;;;2.70;98.00;;;;;;6243475;23;20405;-68
2022/03/09 08:45:57;;;;;;;1.80;1.73;;;2.90;98.00;;;;;;6242941;23;20868;-68
2022/03/09 08:48:26;;;;;;;5.13;1.87;;;3.00;98.00;;;;;;6243097;23;20456;-66
2022/03/09 08:50:53;;;;;;;1.20;1.07;;;3.20;98.00;;;;;;6242260;23;20402;-67
2022/03/09 08:53:20;;;;;;;2.30;2.10;;;3.40;97.40;;;;;;6243486;23;20451;-68
2022/03/09 08:55:55;;;;;;;2.67;2.20;;;3.60;97.60;;;;;;6243355;23;20403;-68
2022/03/09 08:58:23;;;;;;;1.50;1.40;;;3.60;96.50;;;;;;6215770;23;20417;-69
2022/03/09 09:00:51;;;;;;;1.20;1.13;;;3.80;95.70;;;;;;6242955;23;20438;-67
2022/03/09 09:03:18;;;;;;;1.70;1.60;;;3.80;96.00;;;;;;6215995;23;20418;-69
2022/03/09 09:05:46;;;;;;;4.00;1.73;;;3.90;95.50;;;;;;6242420;23;20461;-71
2022/03/09 09:08:14;;;;;;;1.57;1.40;;;4.10;95.40;;;;;;6243483;23;20398;-70
2022/03/09 09:10:41;;;;;;;2.17;1.57;;;4.30;94.40;;;;;;6216580;23;20396;-69
2022/03/09 09:13:08;;;;;;;1.63;1.63;;;4.60;92.90;;;;;;6242824;23;20401;-70
2022/03/09 09:15:36;;;;;;;3.60;2.60;;;4.80;90.50;;;;;;6243028;23;20438;-69
2022/03/09 09:18:04;;;;;;;2.40;2.23;;;5.00;90.40;;;;;;6243207;23;20435;-69
2022/03/09 09:20:32;;;;;;;9.30;2.20;;;5.20;88.80;;;;;;6242885;23;20442;-69
2022/03/09 09:23:00;;;;;;;2.10;1.57;;;5.60;88.30;;;;;;6243002;23;20433;-69
2022/03/09 09:25:28;;;;;;;2.80;2.20;;;5.90;87.70;;;;;;6242706;23;20905;-69
2022/03/09 09:27:56;;;;;;;1.50;1.47;;;6.00;86.40;;;;;;6242624;23;20413;-69
2022/03/09 09:30:26;;;;;;;1.87;1.70;;;6.20;86.40;;;;;;6242724;23;20479;-69
2022/03/09 09:32:55;;;;;;;1.67;1.63;;;6.30;85.90;;;;;;6242896;23;20417;-69
2022/03/09 09:35:22;;;;;;;2.33;1.97;;;6.50;84.50;;;;;;6242880;23;20456;-69
2022/03/09 09:37:49;;;;;;;3.03;2.57;;;6.80;83.90;;;;;;6242883;23;20403;-70
2022/03/09 09:40:16;;;;;;;4.83;2.53;;;7.10;83.50;;;;;;6242523;23;20460;-70
2022/03/09 09:42:45;;;;;;;3.60;2.20;;;7.30;83.10;;;;;;6242736;23;20406;-69
2022/03/09 09:45:12;;;;;;;2.33;2.07;;;7.40;81.80;;;;;;6243003;23;20485;-70
2022/03/09 09:47:39;;;;;;;2.63;1.90;;;7.60;81.60;;;;;;6242673;23;20422;-69
2022/03/09 09:50:09;;;;;;;1.60;1.53;;;7.80;81.30;;;;;;6241953;23;20421;-69
2022/03/09 09:52:36;;;;;;;1.20;1.07;;;8.00;80.50;;;;;;6242376;23;20405;-69
2022/03/09 09:55:07;;;;;;;1.73;1.40;;;8.20;80.10;;;;;;6243067;23;20404;-71
2022/03/09 09:57:35;;;;;;;2.97;1.70;;;8.40;80.10;;;;;;6242954;23;20756;-70
2022/03/09 10:00:04;;;;;;;2.77;2.57;;;8.70;80.10;;;;;;6242493;23;20426;-71
2022/03/09 10:02:31;;;;;;;4.80;2.20;;;8.90;79.00;;;;;;6241639;23;20770;-71
2022/03/09 10:04:58;;;;;;;6.63;2.90;;;9.10;79.30;;;;;;6242588;23;20874;-70
2022/03/09 10:07:27;;;;;;;2.27;2.10;;;9.30;78.20;;;;;;6242848;23;20408;-70
2022/03/09 10:09:54;;;;;;;4.53;2.00;;;9.50;77.50;;;;;;6242462;23;20436;-70
2022/03/09 10:12:27;;;;;;;4.60;2.60;;;9.60;76.50;;;;;;6244560;23;20401;-69
2022/03/09 10:14:55;;;;;;;6.37;2.50;;;9.80;75.30;;;;;;6244736;23;20420;-69
2022/03/09 10:17:24;;;;;;;2.97;2.40;;;10.00;75.70;;;;;;6244412;23;20711;-69
2022/03/09 10:19:54;;;;;;;1.60;1.57;;;10.40;75.00;;;;;;6244233;23;20401;-70
2022/03/09 10:22:30;;;;;;;4.40;2.27;;;10.60;73.10;;;;;;6245193;23;20463;-69
2022/03/09 10:25:04;;;;;;;2.30;1.97;;;10.80;71.90;;;;;;6244539;23;20886;-70
2022/03/09 10:27:38;;;;;;;3.67;1.83;;;11.00;72.10;;;;;;6244741;23;20455;-68
2022/03/09 10:30:08;;;;;;;7.97;3.03;;;11.30;72.40;;;;;;6244195;23;20994;-71
2022/03/09 10:32:53;;;;;;;2.40;2.20;;;11.40;70.50;;;;;;6217774;23;20405;-70
2022/03/09 10:35:21;;;;;;;1.77;1.60;;;11.70;68.90;;;;;;6244375;23;20397;-69
2022/03/09 10:37:51;;;;;;;2.77;2.37;;;11.80;68.20;;;;;;6244519;23;20461;-70
2022/03/09 10:40:20;;;;;;;4.43;2.60;;;11.90;71.20;;;;;;6244042;23;20428;-71
2022/03/09 10:42:48;;;;;;;4.27;3.10;;;11.90;70.50;;;;;;6244467;23;20424;-69
2022/03/09 10:45:17;;;;;;;2.40;1.83;;;12.00;69.60;;;;;;6244322;23;20434;-70
2022/03/09 10:47:45;;;;;;;2.27;2.00;;;12.30;69.30;;;;;;6244334;23;20405;-73
2022/03/09 10:50:14;;;;;;;4.00;2.03;;;12.50;68.30;;;;;;6217077;23;20421;-70
2022/03/09 10:53:04;;;;;;;1.60;1.50;;;12.80;78.70;;;;;;6218166;23;20417;-68
2022/03/09 10:55:32;;;;;;;2.10;1.93;;;13.10;66.90;;;;;;6244351;23;20781;-70
2022/03/09 10:58:12;;;;;;;4.47;2.80;;;13.20;66.30;;;;;;6244329;23;20424;-70
2022/03/09 11:00:42;;;;;;;4.33;2.07;;;13.60;69.00;;;;;;6243831;23;20459;-71
2022/03/09 11:03:11;;;;;;;1.70;1.63;;;13.70;65.80;;;;;;6243863;23;20436;-69
2022/03/09 11:05:48;;;;;;;4.73;2.47;;;13.60;64.90;;;;;;6244261;23;20450;-68
2022/03/09 11:08:18;;;;;;;3.63;2.40;;;13.70;65.80;;;;;;6244325;23;20612;-70
2022/03/09 11:10:46;;;;;;;3.83;2.43;;;13.60;65.10;;;;;;6243366;23;20740;-69
2022/03/09 11:13:14;;;;;;;3.70;2.73;;;13.70;64.50;;;;;;6244180;23;20397;-69
2022/03/09 11:15:43;;;;;;;3.90;2.00;;;13.90;64.70;;;;;;6244417;23;20679;-69
2022/03/09 11:18:13;;;;;;;3.93;2.10;;;14.10;64.40;;;;;;6243898;23;20560;-69
2022/03/09 11:20:40;;;;;;;3.63;2.43;;;14.30;63.90;;;;;;6243811;23;20749;-69
2022/03/09 11:23:07;;;;;;;3.03;2.50;;;14.40;62.20;;;;;;6244038;23;20717;-69
2022/03/09 11:25:52;;;;;;;5.70;2.67;;;14.60;63.50;;;;;;6244128;23;20468;-69
2022/03/09 11:28:24;;;;;;;4.10;3.20;;;14.70;63.50;;;;;;6244107;23;20404;-70
2022/03/09 11:30:56;;;;;;;2.80;2.60;;;15.00;64.30;;;;;;6243604;23;20430;-67
2022/03/09 11:33:37;;;;;;;3.10;2.33;;;15.20;62.40;;;;;;6243650;23;20926;-69
2022/03/09 11:36:26;;;;;;;2.87;2.40;;;15.40;62.70;;;;;;6243953;23;20421;-69
2022/03/09 11:38:54;;;;;;;3.63;2.40;;;15.80;63.80;;;;;;6243535;23;20415;-70
2022/03/09 11:41:24;;;;;;;3.47;1.97;;;15.90;63.50;;;;;;6243471;23;20455;-70
2022/03/09 11:43:52;;;;;;;2.53;2.33;;;16.10;60.20;;;;;;6243447;23;20488;-69
2022/03/09 11:46:19;;;;;;;3.37;2.53;;;16.20;60.00;;;;;;6243485;23;20397;-69
2022/03/09 11:48:51;;;;;;;3.43;2.87;;;16.30;60.90;;;;;;6243365;23;20859;-69
2022/03/09 11:51:18;;;;;;;4.70;2.87;;;16.10;58.40;;;;;;6242784;23;20701;-68
2022/03/09 11:53:48;;;;;;;3.37;2.10;;;16.40;60.20;;;;;;6243765;23;20761;-71
2022/03/09 11:56:39;;;;;;;4.60;2.80;;;16.40;59.20;;;;;;6243856;23;20406;-68
2022/03/09 11:59:28;;;;;;;2.83;1.93;;;16.80;59.20;;;;;;6243885;23;20406;-70
2022/03/09 12:02:37;;;;;;;2.27;2.13;;;17.00;59.00;;;;;;6235520;23;20456;-69
2022/03/09 12:05:06;;;;;;;4.53;3.10;;;17.10;58.80;;;;;;6243506;23;20459;-69
2022/03/09 12:08:00;;;;;;;4.77;2.60;;;17.20;57.40;;;;;;6244039;23;20403;-69
2022/03/09 12:10:50;;;;;;;4.03;2.30;;;17.50;58.20;;;;;;6216636;23;20751;-70
2022/03/09 12:13:27;;;;;;;5.87;3.03;;;17.70;58.70;;;;;;6243287;23;20452;-68
2022/03/09 12:16:12;;;;;;;5.80;2.70;;;18.10;57.90;;;;;;6243149;23;20393;-72
2022/03/09 12:18:42;;;;;;;4.70;2.80;;;18.00;56.10;;;;;;6243986;23;20461;-70
2022/03/09 12:21:10;;;;;;;5.23;2.63;;;18.10;55.90;;;;;;6243385;23;20457;-70
2022/03/09 12:23:52;;;;;;;2.93;2.50;;;18.20;57.00;;;;;;6243585;23;20401;-68
2022/03/09 12:26:41;;;;;;;3.60;2.90;;;18.20;55.80;;;;;;6218545;23;20417;-70
2022/03/09 12:29:38;;;;;;;5.40;3.30;;;18.20;55.90;;;;;;6242992;23;20908;-71
2022/03/09 12:32:07;;;;;;;4.60;3.47;;;18.30;55.80;;;;;;6243467;23;20429;-68
2022/03/09 12:34:37;;;;;;;3.30;2.13;;;18.40;54.00;;;;;;6243100;23;20457;-69
2022/03/09 12:37:06;;;;;;;9.17;3.13;;;18.70;59.00;;;;;;6243510;23;20402;-70
2022/03/09 12:39:33;;;;;;;6.70;3.50;;;19.10;51.70;;;;;;6242810;23;20449;-72
2022/03/09 12:42:01;;;;;;;6.17;3.27;;;18.90;51.30;;;;;;6243788;23;20425;-68
2022/03/09 12:44:31;;;;;;;2.63;2.37;;;18.80;51.70;;;;;;6244149;23;20409;-70
2022/03/09 12:47:03;;;;;;;5.13;3.13;;;18.90;55.20;;;;;;6244008;23;20398;-69
2022/03/09 12:49:36;;;;;;;5.27;2.90;;;19.20;53.10;;;;;;6244726;23;20398;-71
2022/03/09 12:52:08;;;;;;;6.80;3.10;;;19.00;51.20;;;;;;6244357;23;20451;-70
2022/03/09 12:54:41;;;;;;;4.77;2.33;;;18.90;53.50;;;;;;6244610;23;20401;-71
2022/03/09 12:57:10;;;;;;;5.20;3.20;;;19.30;51.80;;;;;;6244267;23;20398;-71
2022/03/09 12:59:38;;;;;;;3.43;2.03;;;19.50;52.00;;;;;;6244655;23;20463;-68
2022/03/09 13:02:06;;;;;;;8.27;4.27;;;19.60;51.40;;;;;;6243921;23;20495;-70